sensor_id;sensor_type;location;lat;lon;timestamp;temperature;humidity
62998;DHT22;55949;52.590;7.330;2024-02-15T00:00:13;12.90;99.90
62998;DHT22;55949;52.590;7.330;2024-02-15T00:01:16;13.00;99.90
62998;DHT22;55949;52.590;7.330;2024-02-15T00:02:18;13.00;99.90
62998;DHT22;55949;52.590;7.330;2024-02-15T00:03:38;13.10;99.90
62998;DHT22;55949;52.590;7.330;2024-02-15T00:05:19;13.10;99.90
62998;DHT22;55949;52.590;7.330;2024-02-15T00:06:25;13.10;99.90
62998;DHT22;55949;52.590;7.330;2024-02-15T00:07:25;13.00;99.90
62998;DHT22;55949;52.590;7.330;2024-02-15T00:08:28;13.00;99.90
62998;DHT22;55949;52.590;7.330;2024-02-15T00:09:29;13.10;99.90
62998;DHT22;55949;52.590;7.330;2024-02-15T00:10:30;12.90;99.90
62998;DHT22;55949;52.590;7.330;2024-02-15T00:11:30;13.00;99.90
62998;DHT22;55949;52.590;7.330;2024-02-15T00:12:32;13.00;99.90
62998;DHT22;55949;52.590;7.330;2024-02-15T00:13:33;13.00;99.90
62998;DHT22;55949;52.590;7.330;2024-02-15T00:14:34;13.00;99.90
62998;DHT22;55949;52.590;7.330;2024-02-15T00:15:35;13.00;99.90
62998;DHT22;55949;52.590;7.330;2024-02-15T00:16:37;13.00;99.90
62998;DHT22;55949;52.590;7.330;2024-02-15T00:17:38;13.00;99.90
62998;DHT22;55949;52.590;7.330;2024-02-15T00:18:38;13.00;99.90
62998;DHT22;55949;52.590;7.330;2024-02-15T00:19:40;12.90;99.90
62998;DHT22;55949;52.590;7.330;2024-02-15T00:20:42;12.90;99.90
62998;DHT22;55949;52.590;7.330;2024-02-15T00:21:44;12.80;99.90
62998;DHT22;55949;52.590;7.330;2024-02-15T00:22:45;13.00;99.90
62998;DHT22;55949;52.590;7.330;2024-02-15T00:23:46;13.00;99.90
62998;DHT22;55949;52.590;7.330;2024-02-15T00:24:47;13.00;99.90
62998;DHT22;55949;52.590;7.330;2024-02-15T00:25:49;13.00;99.90
62998;DHT22;55949;52.590;7.330;2024-02-15T00:26:50;13.10;99.90
62998;DHT22;55949;52.590;7.330;2024-02-15T00:27:51;13.10;99.90
62998;DHT22;55949;52.590;7.330;2024-02-15T00:28:52;13.10;99.90
62998;DHT22;55949;52.590;7.330;2024-02-15T00:29:53;13.10;99.90
62998;DHT22;55949;52.590;7.330;2024-02-15T00:30:53;13.10;99.90
62998;DHT22;55949;52.590;7.330;2024-02-15T00:31:55;13.10;99.90
62998;DHT22;55949;52.590;7.330;2024-02-15T00:32:55;13.20;99.90
62998;DHT22;55949;52.590;7.330;2024-02-15T00:33:56;13.20;99.90
62998;DHT22;55949;52.590;7.330;2024-02-15T00:34:57;13.20;99.90
62998;DHT22;55949;52.590;7.330;2024-02-15T00:35:58;13.20;99.90
62998;DHT22;55949;52.590;7.330;2024-02-15T00:36:59;13.10;99.90
62998;DHT22;55949;52.590;7.330;2024-02-15T00:38:00;13.10;99.90
62998;DHT22;55949;52.590;7.330;2024-02-15T00:39:01;13.10;99.90
62998;DHT22;55949;52.590;7.330;2024-02-15T00:40:02;13.20;99.90
62998;DHT22;55949;52.590;7.330;2024-02-15T00:41:05;13.30;99.90
62998;DHT22;55949;52.590;7.330;2024-02-15T00:42:06;13.20;99.90
62998;DHT22;55949;52.590;7.330;2024-02-15T00:43:09;13.00;99.90
62998;DHT22;55949;52.590;7.330;2024-02-15T00:44:10;13.00;99.90
62998;DHT22;55949;52.590;7.330;2024-02-15T00:45:11;12.90;99.90
62998;DHT22;55949;52.590;7.330;2024-02-15T00:46:12;13.00;99.90
62998;DHT22;55949;52.590;7.330;2024-02-15T00:47:12;13.00;99.90
62998;DHT22;55949;52.590;7.330;2024-02-15T00:48:13;13.00;99.90
62998;DHT22;55949;52.590;7.330;2024-02-15T00:49:14;13.00;99.90
62998;DHT22;55949;52.590;7.330;2024-02-15T00:50:15;12.90;99.90
62998;DHT22;55949;52.590;7.330;2024-02-15T00:51:16;12.90;99.90
62998;DHT22;55949;52.590;7.330;2024-02-15T00:52:17;12.90;99.90
62998;DHT22;55949;52.590;7.330;2024-02-15T00:53:20;12.90;99.90
62998;DHT22;55949;52.590;7.330;2024-02-15T00:54:21;13.00;99.90
62998;DHT22;55949;52.590;7.330;2024-02-15T00:55:23;12.90;99.90
62998;DHT22;55949;52.590;7.330;2024-02-15T00:56:24;13.00;99.90
62998;DHT22;55949;52.590;7.330;2024-02-15T00:57:25;13.00;99.90
62998;DHT22;55949;52.590;7.330;2024-02-15T00:58:26;12.90;99.90
62998;DHT22;55949;52.590;7.330;2024-02-15T00:59:27;12.90;99.90
62998;DHT22;55949;52.590;7.330;2024-02-15T01:00:28;12.90;99.90
62998;DHT22;55949;52.590;7.330;2024-02-15T01:01:29;12.90;99.90
62998;DHT22;55949;52.590;7.330;2024-02-15T01:02:30;12.80;99.90
62998;DHT22;55949;52.590;7.330;2024-02-15T01:03:31;12.80;99.90
62998;DHT22;55949;52.590;7.330;2024-02-15T01:04:32;12.80;99.90
62998;DHT22;55949;52.590;7.330;2024-02-15T01:05:33;12.70;99.90
62998;DHT22;55949;52.590;7.330;2024-02-15T01:06:35;12.80;99.90
62998;DHT22;55949;52.590;7.330;2024-02-15T01:07:35;12.70;99.90
62998;DHT22;55949;52.590;7.330;2024-02-15T01:08:36;12.70;99.90
62998;DHT22;55949;52.590;7.330;2024-02-15T01:09:37;12.70;99.90
62998;DHT22;55949;52.590;7.330;2024-02-15T01:10:38;12.70;99.90
62998;DHT22;55949;52.590;7.330;2024-02-15T01:11:39;12.70;99.90
62998;DHT22;55949;52.590;7.330;2024-02-15T01:12:40;12.80;99.90
62998;DHT22;55949;52.590;7.330;2024-02-15T01:13:41;12.80;99.90
62998;DHT22;55949;52.590;7.330;2024-02-15T01:14:41;12.80;99.90
62998;DHT22;55949;52.590;7.330;2024-02-15T01:15:43;12.90;99.90
62998;DHT22;55949;52.590;7.330;2024-02-15T01:16:45;12.80;99.90
62998;DHT22;55949;52.590;7.330;2024-02-15T01:17:46;12.80;99.90
62998;DHT22;55949;52.590;7.330;2024-02-15T01:18:47;12.80;99.90
62998;DHT22;55949;52.590;7.330;2024-02-15T01:19:48;12.80;99.90
62998;DHT22;55949;52.590;7.330;2024-02-15T01:20:49;12.80;99.90
62998;DHT22;55949;52.590;7.330;2024-02-15T01:21:51;12.90;99.90
62998;DHT22;55949;52.590;7.330;2024-02-15T01:22:54;12.90;99.90
62998;DHT22;55949;52.590;7.330;2024-02-15T01:23:54;12.80;99.90
62998;DHT22;55949;52.590;7.330;2024-02-15T01:24:55;12.80;99.90
62998;DHT22;55949;52.590;7.330;2024-02-15T01:25:58;12.80;99.90
62998;DHT22;55949;52.590;7.330;2024-02-15T01:27:01;12.80;99.90
62998;DHT22;55949;52.590;7.330;2024-02-15T01:28:02;12.80;99.90
62998;DHT22;55949;52.590;7.330;2024-02-15T01:29:03;12.70;99.90
62998;DHT22;55949;52.590;7.330;2024-02-15T01:30:04;12.70;99.90
62998;DHT22;55949;52.590;7.330;2024-02-15T01:31:05;12.60;99.90
62998;DHT22;55949;52.590;7.330;2024-02-15T01:32:07;12.60;99.90
62998;DHT22;55949;52.590;7.330;2024-02-15T01:33:07;12.60;99.90
62998;DHT22;55949;52.590;7.330;2024-02-15T01:34:09;12.60;99.90
62998;DHT22;55949;52.590;7.330;2024-02-15T01:35:09;12.70;99.90
62998;DHT22;55949;52.590;7.330;2024-02-15T01:36:17;12.70;99.90
62998;DHT22;55949;52.590;7.330;2024-02-15T01:37:18;12.80;99.90
62998;DHT22;55949;52.590;7.330;2024-02-15T01:38:18;12.70;99.90
62998;DHT22;55949;52.590;7.330;2024-02-15T01:39:19;12.60;99.90
62998;DHT22;55949;52.590;7.330;2024-02-15T01:40:20;12.60;99.90
62998;DHT22;55949;52.590;7.330;2024-02-15T01:41:21;12.60;99.90
62998;DHT22;55949;52.590;7.330;2024-02-15T01:42:22;12.60;99.90
62998;DHT22;55949;52.590;7.330;2024-02-15T01:43:23;12.60;99.90
62998;DHT22;55949;52.590;7.330;2024-02-15T01:44:24;12.60;99.90
62998;DHT22;55949;52.590;7.330;2024-02-15T01:45:25;12.60;99.90
62998;DHT22;55949;52.590;7.330;2024-02-15T01:46:26;12.60;99.90
62998;DHT22;55949;52.590;7.330;2024-02-15T01:47:27;12.60;99.90
62998;DHT22;55949;52.590;7.330;2024-02-15T01:48:28;12.60;99.90
62998;DHT22;55949;52.590;7.330;2024-02-15T01:49:30;12.70;99.90
62998;DHT22;55949;52.590;7.330;2024-02-15T01:50:31;12.70;99.90
62998;DHT22;55949;52.590;7.330;2024-02-15T01:51:35;12.70;99.90
62998;DHT22;55949;52.590;7.330;2024-02-15T01:52:38;12.80;99.90
62998;DHT22;55949;52.590;7.330;2024-02-15T01:53:42;12.80;99.90
62998;DHT22;55949;52.590;7.330;2024-02-15T01:54:43;12.90;99.90
62998;DHT22;55949;52.590;7.330;2024-02-15T01:55:43;13.00;99.90
62998;DHT22;55949;52.590;7.330;2024-02-15T01:56:45;13.10;99.90
62998;DHT22;55949;52.590;7.330;2024-02-15T01:57:46;13.10;99.90
62998;DHT22;55949;52.590;7.330;2024-02-15T01:58:47;13.20;99.90
62998;DHT22;55949;52.590;7.330;2024-02-15T01:59:50;13.30;99.90
62998;DHT22;55949;52.590;7.330;2024-02-15T02:00:53;13.20;99.90
62998;DHT22;55949;52.590;7.330;2024-02-15T02:01:55;13.20;99.90
62998;DHT22;55949;52.590;7.330;2024-02-15T02:02:57;13.20;99.90
62998;DHT22;55949;52.590;7.330;2024-02-15T02:04:03;13.30;99.90
62998;DHT22;55949;52.590;7.330;2024-02-15T02:05:04;13.30;99.90
62998;DHT22;55949;52.590;7.330;2024-02-15T02:06:05;13.30;99.90
62998;DHT22;55949;52.590;7.330;2024-02-15T02:07:06;13.40;99.90
62998;DHT22;55949;52.590;7.330;2024-02-15T02:08:07;13.40;99.90
62998;DHT22;55949;52.590;7.330;2024-02-15T02:09:13;13.50;99.90
62998;DHT22;55949;52.590;7.330;2024-02-15T02:10:15;13.50;99.90
62998;DHT22;55949;52.590;7.330;2024-02-15T02:11:16;13.50;99.90
62998;DHT22;55949;52.590;7.330;2024-02-15T02:12:17;13.50;99.90
62998;DHT22;55949;52.590;7.330;2024-02-15T02:13:18;13.60;99.90
62998;DHT22;55949;52.590;7.330;2024-02-15T02:14:19;13.60;99.90
62998;DHT22;55949;52.590;7.330;2024-02-15T02:15:21;13.60;99.90
62998;DHT22;55949;52.590;7.330;2024-02-15T02:16:29;13.60;99.90
62998;DHT22;55949;52.590;7.330;2024-02-15T02:17:30;13.50;99.90
62998;DHT22;55949;52.590;7.330;2024-02-15T02:18:31;13.50;99.90
62998;DHT22;55949;52.590;7.330;2024-02-15T02:19:31;13.40;99.90
62998;DHT22;55949;52.590;7.330;2024-02-15T02:20:33;13.40;99.90
62998;DHT22;55949;52.590;7.330;2024-02-15T02:21:36;13.30;99.90
62998;DHT22;55949;52.590;7.330;2024-02-15T02:22:36;13.30;99.90
62998;DHT22;55949;52.590;7.330;2024-02-15T02:23:37;13.30;99.90
62998;DHT22;55949;52.590;7.330;2024-02-15T02:26:01;13.50;99.90
62998;DHT22;55949;52.590;7.330;2024-02-15T02:27:04;13.50;99.90
62998;DHT22;55949;52.590;7.330;2024-02-15T02:28:07;13.50;99.90
62998;DHT22;55949;52.590;7.330;2024-02-15T02:29:08;13.40;99.90
62998;DHT22;55949;52.590;7.330;2024-02-15T02:30:14;13.40;99.90
62998;DHT22;55949;52.590;7.330;2024-02-15T02:31:20;13.40;99.90
62998;DHT22;55949;52.590;7.330;2024-02-15T02:32:22;13.40;99.90
62998;DHT22;55949;52.590;7.330;2024-02-15T02:33:22;13.40;99.90
62998;DHT22;55949;52.590;7.330;2024-02-15T02:34:28;13.40;99.90
62998;DHT22;55949;52.590;7.330;2024-02-15T02:35:29;13.40;99.90
62998;DHT22;55949;52.590;7.330;2024-02-15T02:36:33;13.40;99.90
62998;DHT22;55949;52.590;7.330;2024-02-15T02:37:34;13.50;99.90
62998;DHT22;55949;52.590;7.330;2024-02-15T02:38:37;13.50;99.90
62998;DHT22;55949;52.590;7.330;2024-02-15T02:39:38;13.40;99.90
62998;DHT22;55949;52.590;7.330;2024-02-15T02:40:39;13.40;99.90
62998;DHT22;55949;52.590;7.330;2024-02-15T02:41:40;13.40;99.90
62998;DHT22;55949;52.590;7.330;2024-02-15T02:42:54;13.40;99.90
62998;DHT22;55949;52.590;7.330;2024-02-15T02:44:00;13.40;99.90
62998;DHT22;55949;52.590;7.330;2024-02-15T02:45:01;13.40;99.90
62998;DHT22;55949;52.590;7.330;2024-02-15T02:46:01;13.40;99.90
62998;DHT22;55949;52.590;7.330;2024-02-15T02:47:02;13.50;99.90
62998;DHT22;55949;52.590;7.330;2024-02-15T02:48:03;13.50;99.90
62998;DHT22;55949;52.590;7.330;2024-02-15T02:49:07;13.40;99.90
62998;DHT22;55949;52.590;7.330;2024-02-15T02:50:13;13.30;99.90
62998;DHT22;55949;52.590;7.330;2024-02-15T02:51:15;13.30;99.90
62998;DHT22;55949;52.590;7.330;2024-02-15T02:52:16;13.40;99.90
62998;DHT22;55949;52.590;7.330;2024-02-15T02:53:17;13.40;99.90
62998;DHT22;55949;52.590;7.330;2024-02-15T02:54:17;13.30;99.90
62998;DHT22;55949;52.590;7.330;2024-02-15T02:55:18;13.40;99.90
62998;DHT22;55949;52.590;7.330;2024-02-15T02:56:19;13.40;99.90
62998;DHT22;55949;52.590;7.330;2024-02-15T02:57:20;13.50;99.90
62998;DHT22;55949;52.590;7.330;2024-02-15T02:58:20;13.60;99.90
62998;DHT22;55949;52.590;7.330;2024-02-15T02:59:21;13.60;99.90
62998;DHT22;55949;52.590;7.330;2024-02-15T03:00:22;13.60;99.90
62998;DHT22;55949;52.590;7.330;2024-02-15T03:01:23;13.60;99.90
62998;DHT22;55949;52.590;7.330;2024-02-15T03:02:27;13.70;99.90
62998;DHT22;55949;52.590;7.330;2024-02-15T03:03:28;13.60;99.90
62998;DHT22;55949;52.590;7.330;2024-02-15T03:04:32;13.50;99.90
62998;DHT22;55949;52.590;7.330;2024-02-15T03:05:33;13.50;99.90
62998;DHT22;55949;52.590;7.330;2024-02-15T03:06:34;13.50;99.90
62998;DHT22;55949;52.590;7.330;2024-02-15T03:07:36;13.50;99.90
62998;DHT22;55949;52.590;7.330;2024-02-15T03:08:37;13.60;99.90
62998;DHT22;55949;52.590;7.330;2024-02-15T03:09:38;13.70;99.90
62998;DHT22;55949;52.590;7.330;2024-02-15T03:10:39;13.70;99.90
62998;DHT22;55949;52.590;7.330;2024-02-15T03:11:41;13.60;99.90
62998;DHT22;55949;52.590;7.330;2024-02-15T03:12:42;13.60;99.90
62998;DHT22;55949;52.590;7.330;2024-02-15T03:13:49;13.60;99.90
62998;DHT22;55949;52.590;7.330;2024-02-15T03:14:50;13.60;99.90
62998;DHT22;55949;52.590;7.330;2024-02-15T03:15:51;13.50;99.90
62998;DHT22;55949;52.590;7.330;2024-02-15T03:16:51;13.50;99.90
62998;DHT22;55949;52.590;7.330;2024-02-15T03:17:52;13.50;99.90
62998;DHT22;55949;52.590;7.330;2024-02-15T03:18:53;13.50;99.90
62998;DHT22;55949;52.590;7.330;2024-02-15T03:19:54;13.60;99.90
62998;DHT22;55949;52.590;7.330;2024-02-15T03:20:56;13.50;99.90
62998;DHT22;55949;52.590;7.330;2024-02-15T03:21:57;13.50;99.90
62998;DHT22;55949;52.590;7.330;2024-02-15T03:22:58;13.40;99.90
62998;DHT22;55949;52.590;7.330;2024-02-15T03:23:59;13.40;99.90
62998;DHT22;55949;52.590;7.330;2024-02-15T03:25:00;13.40;99.90
62998;DHT22;55949;52.590;7.330;2024-02-15T03:26:01;13.30;99.90
62998;DHT22;55949;52.590;7.330;2024-02-15T03:27:04;13.30;99.90
62998;DHT22;55949;52.590;7.330;2024-02-15T03:28:05;13.40;99.90
62998;DHT22;55949;52.590;7.330;2024-02-15T03:29:06;13.50;99.90
62998;DHT22;55949;52.590;7.330;2024-02-15T03:30:10;13.50;99.90
62998;DHT22;55949;52.590;7.330;2024-02-15T03:31:11;13.50;99.90
62998;DHT22;55949;52.590;7.330;2024-02-15T03:32:13;13.50;99.90
62998;DHT22;55949;52.590;7.330;2024-02-15T03:33:14;13.60;99.90
62998;DHT22;55949;52.590;7.330;2024-02-15T03:34:15;13.60;99.90
62998;DHT22;55949;52.590;7.330;2024-02-15T03:35:17;13.70;99.90
62998;DHT22;55949;52.590;7.330;2024-02-15T03:36:18;13.60;99.90
62998;DHT22;55949;52.590;7.330;2024-02-15T03:37:20;13.60;99.90
62998;DHT22;55949;52.590;7.330;2024-02-15T03:38:21;13.60;99.90
62998;DHT22;55949;52.590;7.330;2024-02-15T03:39:22;13.50;99.90
62998;DHT22;55949;52.590;7.330;2024-02-15T03:40:24;13.50;99.90
62998;DHT22;55949;52.590;7.330;2024-02-15T03:41:27;13.50;99.90
62998;DHT22;55949;52.590;7.330;2024-02-15T03:42:31;13.50;99.90
62998;DHT22;55949;52.590;7.330;2024-02-15T03:43:32;13.50;99.90
62998;DHT22;55949;52.590;7.330;2024-02-15T03:44:34;13.60;99.90
62998;DHT22;55949;52.590;7.330;2024-02-15T03:45:36;13.70;99.90
62998;DHT22;55949;52.590;7.330;2024-02-15T03:46:44;13.60;99.90
62998;DHT22;55949;52.590;7.330;2024-02-15T03:47:54;13.50;99.90
62998;DHT22;55949;52.590;7.330;2024-02-15T03:48:58;13.50;99.90
62998;DHT22;55949;52.590;7.330;2024-02-15T03:49:59;13.50;99.90
62998;DHT22;55949;52.590;7.330;2024-02-15T03:51:00;13.50;99.90
62998;DHT22;55949;52.590;7.330;2024-02-15T03:52:02;13.50;99.90
62998;DHT22;55949;52.590;7.330;2024-02-15T03:53:03;13.40;99.90
62998;DHT22;55949;52.590;7.330;2024-02-15T03:54:03;13.40;99.90
62998;DHT22;55949;52.590;7.330;2024-02-15T03:55:05;13.40;99.90
62998;DHT22;55949;52.590;7.330;2024-02-15T03:56:07;13.40;99.90
62998;DHT22;55949;52.590;7.330;2024-02-15T03:57:09;13.30;99.90
62998;DHT22;55949;52.590;7.330;2024-02-15T03:58:11;13.40;99.90
62998;DHT22;55949;52.590;7.330;2024-02-15T03:59:15;13.40;99.90
62998;DHT22;55949;52.590;7.330;2024-02-15T04:00:16;13.40;99.90
62998;DHT22;55949;52.590;7.330;2024-02-15T04:01:21;13.30;99.90
62998;DHT22;55949;52.590;7.330;2024-02-15T04:02:22;13.30;99.90
62998;DHT22;55949;52.590;7.330;2024-02-15T04:03:24;13.30;99.90
62998;DHT22;55949;52.590;7.330;2024-02-15T04:04:24;13.40;99.90
62998;DHT22;55949;52.590;7.330;2024-02-15T04:05:26;13.40;99.90
62998;DHT22;55949;52.590;7.330;2024-02-15T04:06:27;13.50;99.90
62998;DHT22;55949;52.590;7.330;2024-02-15T04:07:31;13.50;99.90
62998;DHT22;55949;52.590;7.330;2024-02-15T04:08:32;13.40;99.90
62998;DHT22;55949;52.590;7.330;2024-02-15T04:09:33;13.40;99.90
62998;DHT22;55949;52.590;7.330;2024-02-15T04:10:36;13.40;99.90
62998;DHT22;55949;52.590;7.330;2024-02-15T04:11:36;13.40;99.90
62998;DHT22;55949;52.590;7.330;2024-02-15T04:12:38;13.50;99.90
62998;DHT22;55949;52.590;7.330;2024-02-15T04:13:42;13.50;99.90
62998;DHT22;55949;52.590;7.330;2024-02-15T04:14:46;13.60;99.90
62998;DHT22;55949;52.590;7.330;2024-02-15T04:15:47;13.50;99.90
62998;DHT22;55949;52.590;7.330;2024-02-15T04:16:50;13.40;99.90
62998;DHT22;55949;52.590;7.330;2024-02-15T04:17:50;13.40;99.90
62998;DHT22;55949;52.590;7.330;2024-02-15T04:18:56;13.50;99.90
62998;DHT22;55949;52.590;7.330;2024-02-15T04:20:00;13.50;99.90
62998;DHT22;55949;52.590;7.330;2024-02-15T04:21:01;13.60;99.90
62998;DHT22;55949;52.590;7.330;2024-02-15T04:22:02;13.50;99.90
62998;DHT22;55949;52.590;7.330;2024-02-15T04:23:07;13.50;99.90
62998;DHT22;55949;52.590;7.330;2024-02-15T04:24:09;13.50;99.90
62998;DHT22;55949;52.590;7.330;2024-02-15T04:25:10;13.50;99.90
62998;DHT22;55949;52.590;7.330;2024-02-15T04:26:11;13.50;99.90
62998;DHT22;55949;52.590;7.330;2024-02-15T04:27:14;13.50;99.90
62998;DHT22;55949;52.590;7.330;2024-02-15T04:28:15;13.60;99.90
62998;DHT22;55949;52.590;7.330;2024-02-15T04:29:15;13.70;99.90
62998;DHT22;55949;52.590;7.330;2024-02-15T04:30:17;13.80;99.90
62998;DHT22;55949;52.590;7.330;2024-02-15T04:31:18;13.80;99.90
62998;DHT22;55949;52.590;7.330;2024-02-15T04:32:20;13.80;99.90
62998;DHT22;55949;52.590;7.330;2024-02-15T04:33:21;13.80;99.90
62998;DHT22;55949;52.590;7.330;2024-02-15T04:34:22;13.90;99.90
62998;DHT22;55949;52.590;7.330;2024-02-15T04:35:23;14.00;99.90
62998;DHT22;55949;52.590;7.330;2024-02-15T04:36:28;14.00;99.90
62998;DHT22;55949;52.590;7.330;2024-02-15T04:37:34;13.90;99.90
62998;DHT22;55949;52.590;7.330;2024-02-15T04:38:35;13.80;99.90
62998;DHT22;55949;52.590;7.330;2024-02-15T04:39:36;13.80;99.90
62998;DHT22;55949;52.590;7.330;2024-02-15T04:40:37;13.70;99.90
62998;DHT22;55949;52.590;7.330;2024-02-15T04:41:39;13.70;99.90
62998;DHT22;55949;52.590;7.330;2024-02-15T04:42:40;13.70;99.90
62998;DHT22;55949;52.590;7.330;2024-02-15T04:43:43;13.80;99.90
62998;DHT22;55949;52.590;7.330;2024-02-15T04:44:46;13.80;99.90
62998;DHT22;55949;52.590;7.330;2024-02-15T04:45:46;13.90;99.90
62998;DHT22;55949;52.590;7.330;2024-02-15T04:46:48;13.90;99.90
62998;DHT22;55949;52.590;7.330;2024-02-15T04:47:52;14.00;99.90
62998;DHT22;55949;52.590;7.330;2024-02-15T04:48:54;14.00;99.90
62998;DHT22;55949;52.590;7.330;2024-02-15T04:49:56;14.00;99.90
62998;DHT22;55949;52.590;7.330;2024-02-15T04:50:57;14.00;99.90
62998;DHT22;55949;52.590;7.330;2024-02-15T04:51:59;13.90;99.90
62998;DHT22;55949;52.590;7.330;2024-02-15T04:53:04;13.90;99.90
62998;DHT22;55949;52.590;7.330;2024-02-15T04:54:05;13.90;99.90
62998;DHT22;55949;52.590;7.330;2024-02-15T04:55:08;14.00;99.90
62998;DHT22;55949;52.590;7.330;2024-02-15T04:56:08;14.10;99.90
62998;DHT22;55949;52.590;7.330;2024-02-15T04:57:14;14.10;99.90
62998;DHT22;55949;52.590;7.330;2024-02-15T04:58:15;14.10;99.90
62998;DHT22;55949;52.590;7.330;2024-02-15T04:59:15;14.20;99.90
62998;DHT22;55949;52.590;7.330;2024-02-15T05:00:16;14.20;99.90
62998;DHT22;55949;52.590;7.330;2024-02-15T05:01:21;14.10;99.90
62998;DHT22;55949;52.590;7.330;2024-02-15T05:02:22;14.20;99.90
62998;DHT22;55949;52.590;7.330;2024-02-15T05:03:26;14.20;99.90
62998;DHT22;55949;52.590;7.330;2024-02-15T05:04:27;14.20;99.90
62998;DHT22;55949;52.590;7.330;2024-02-15T05:05:28;14.20;99.90
62998;DHT22;55949;52.590;7.330;2024-02-15T05:06:29;14.20;99.90
62998;DHT22;55949;52.590;7.330;2024-02-15T05:07:31;14.10;99.90
62998;DHT22;55949;52.590;7.330;2024-02-15T05:08:32;14.20;99.90
62998;DHT22;55949;52.590;7.330;2024-02-15T05:09:33;14.20;99.90
62998;DHT22;55949;52.590;7.330;2024-02-15T05:10:34;14.10;99.90
62998;DHT22;55949;52.590;7.330;2024-02-15T05:11:36;14.00;99.90
62998;DHT22;55949;52.590;7.330;2024-02-15T05:12:37;14.00;99.90
62998;DHT22;55949;52.590;7.330;2024-02-15T05:13:40;14.10;99.90
62998;DHT22;55949;52.590;7.330;2024-02-15T05:14:41;14.10;99.90
62998;DHT22;55949;52.590;7.330;2024-02-15T05:15:43;14.20;99.90
62998;DHT22;55949;52.590;7.330;2024-02-15T05:16:44;14.20;99.90
62998;DHT22;55949;52.590;7.330;2024-02-15T05:17:48;14.20;99.90
62998;DHT22;55949;52.590;7.330;2024-02-15T05:18:48;14.10;99.90
62998;DHT22;55949;52.590;7.330;2024-02-15T05:19:50;14.20;99.90
62998;DHT22;55949;52.590;7.330;2024-02-15T05:20:51;14.20;99.90
62998;DHT22;55949;52.590;7.330;2024-02-15T05:21:51;14.20;99.90
62998;DHT22;55949;52.590;7.330;2024-02-15T05:22:52;14.30;99.90
62998;DHT22;55949;52.590;7.330;2024-02-15T05:23:53;14.30;99.90
62998;DHT22;55949;52.590;7.330;2024-02-15T05:24:56;14.30;99.90
62998;DHT22;55949;52.590;7.330;2024-02-15T05:25:57;14.30;99.90
62998;DHT22;55949;52.590;7.330;2024-02-15T05:26:58;14.40;99.90
62998;DHT22;55949;52.590;7.330;2024-02-15T05:27:59;14.30;99.90
62998;DHT22;55949;52.590;7.330;2024-02-15T05:29:00;14.30;99.90
62998;DHT22;55949;52.590;7.330;2024-02-15T05:30:01;14.40;99.90
62998;DHT22;55949;52.590;7.330;2024-02-15T05:32:11;14.40;99.90
62998;DHT22;55949;52.590;7.330;2024-02-15T05:33:13;14.40;99.90
62998;DHT22;55949;52.590;7.330;2024-02-15T05:34:14;14.30;99.90
62998;DHT22;55949;52.590;7.330;2024-02-15T05:35:15;14.40;99.90
62998;DHT22;55949;52.590;7.330;2024-02-15T05:36:21;14.40;99.90
62998;DHT22;55949;52.590;7.330;2024-02-15T05:37:23;14.40;99.90
62998;DHT22;55949;52.590;7.330;2024-02-15T05:38:24;14.40;99.90
62998;DHT22;55949;52.590;7.330;2024-02-15T05:39:24;14.40;99.90
62998;DHT22;55949;52.590;7.330;2024-02-15T05:40:25;14.40;99.90
62998;DHT22;55949;52.590;7.330;2024-02-15T05:41:26;14.30;99.90
62998;DHT22;55949;52.590;7.330;2024-02-15T05:42:27;14.40;99.90
62998;DHT22;55949;52.590;7.330;2024-02-15T05:43:28;14.30;99.90
62998;DHT22;55949;52.590;7.330;2024-02-15T05:44:29;14.30;99.90
62998;DHT22;55949;52.590;7.330;2024-02-15T05:45:31;14.30;99.90
62998;DHT22;55949;52.590;7.330;2024-02-15T05:46:35;14.30;99.90
62998;DHT22;55949;52.590;7.330;2024-02-15T05:47:40;14.30;99.90
62998;DHT22;55949;52.590;7.330;2024-02-15T05:48:41;14.20;99.90
62998;DHT22;55949;52.590;7.330;2024-02-15T05:49:41;14.20;99.90
62998;DHT22;55949;52.590;7.330;2024-02-15T05:50:43;14.30;99.90
62998;DHT22;55949;52.590;7.330;2024-02-15T05:51:44;14.30;99.90
62998;DHT22;55949;52.590;7.330;2024-02-15T05:52:46;14.30;99.90
62998;DHT22;55949;52.590;7.330;2024-02-15T05:53:47;14.30;99.90
62998;DHT22;55949;52.590;7.330;2024-02-15T05:54:49;14.30;99.90
62998;DHT22;55949;52.590;7.330;2024-02-15T05:55:52;14.20;99.90
62998;DHT22;55949;52.590;7.330;2024-02-15T05:56:53;14.20;99.90
62998;DHT22;55949;52.590;7.330;2024-02-15T05:57:55;14.20;99.90
62998;DHT22;55949;52.590;7.330;2024-02-15T05:58:56;14.30;99.90
62998;DHT22;55949;52.590;7.330;2024-02-15T05:59:57;14.30;99.90
62998;DHT22;55949;52.590;7.330;2024-02-15T06:01:03;14.20;99.90
62998;DHT22;55949;52.590;7.330;2024-02-15T06:02:05;14.30;99.90
62998;DHT22;55949;52.590;7.330;2024-02-15T06:03:06;14.30;99.90
62998;DHT22;55949;52.590;7.330;2024-02-15T06:04:09;14.30;99.90
62998;DHT22;55949;52.590;7.330;2024-02-15T06:05:10;14.20;99.90
62998;DHT22;55949;52.590;7.330;2024-02-15T06:06:11;14.30;99.90
62998;DHT22;55949;52.590;7.330;2024-02-15T06:07:12;14.30;99.90
62998;DHT22;55949;52.590;7.330;2024-02-15T06:08:13;14.30;99.90
62998;DHT22;55949;52.590;7.330;2024-02-15T06:09:14;14.30;99.90
62998;DHT22;55949;52.590;7.330;2024-02-15T06:10:15;14.30;99.90
62998;DHT22;55949;52.590;7.330;2024-02-15T06:11:19;14.30;99.90
62998;DHT22;55949;52.590;7.330;2024-02-15T06:12:21;14.30;99.90
62998;DHT22;55949;52.590;7.330;2024-02-15T06:13:22;14.20;99.90
62998;DHT22;55949;52.590;7.330;2024-02-15T06:14:23;14.20;99.90
62998;DHT22;55949;52.590;7.330;2024-02-15T06:15:24;14.20;99.90
62998;DHT22;55949;52.590;7.330;2024-02-15T06:16:25;14.20;99.90
62998;DHT22;55949;52.590;7.330;2024-02-15T06:17:25;14.20;99.90
62998;DHT22;55949;52.590;7.330;2024-02-15T06:18:28;14.20;99.90
62998;DHT22;55949;52.590;7.330;2024-02-15T06:19:29;14.20;99.90
62998;DHT22;55949;52.590;7.330;2024-02-15T06:20:33;14.20;99.90
62998;DHT22;55949;52.590;7.330;2024-02-15T06:21:34;14.20;99.90
62998;DHT22;55949;52.590;7.330;2024-02-15T06:22:35;14.10;99.90
62998;DHT22;55949;52.590;7.330;2024-02-15T06:23:38;14.20;99.90
62998;DHT22;55949;52.590;7.330;2024-02-15T06:24:39;14.20;99.90
62998;DHT22;55949;52.590;7.330;2024-02-15T06:25:42;14.20;99.90
62998;DHT22;55949;52.590;7.330;2024-02-15T06:26:43;14.20;99.90
62998;DHT22;55949;52.590;7.330;2024-02-15T06:27:45;14.10;99.90
62998;DHT22;55949;52.590;7.330;2024-02-15T06:28:46;14.20;99.90
62998;DHT22;55949;52.590;7.330;2024-02-15T06:30:09;14.10;99.90
62998;DHT22;55949;52.590;7.330;2024-02-15T06:31:28;14.10;99.90
62998;DHT22;55949;52.590;7.330;2024-02-15T06:32:47;14.10;99.90
62998;DHT22;55949;52.590;7.330;2024-02-15T06:34:08;14.10;99.90